Time;durP1;ratioP1;P1;durP2;ratioP2;P2;SDS_P1;SDS_P2;PMS_P1;PMS_P2;Temp;Humidity;BMP_temperature;BMP_pressure;BME280_temperature;BME280_humidity;BME280_pressure;Samples;Min_cycle;Max_cycle;Signal;HPM_P1;HPM_P2
2022/05/05 00:00:30;;;;;;;7.20;5.93;;;;;;;11.32;75.61;97432.25;5093915;28;20279;-87
2022/05/05 00:02:58;;;;;;;7.60;5.67;;;;;;;11.15;76.62;97413.09;5112070;28;20202;-91
2022/05/05 00:05:25;;;;;;;8.53;6.30;;;;;;;11.22;76.87;97417.13;5114811;28;20217;-89
2022/05/05 00:07:54;;;;;;;7.37;5.97;;;;;;;11.39;75.59;97425.91;5111881;28;20230;-87
2022/05/05 00:15:54;;;;;;;7.57;5.87;;;;;;;11.31;74.79;97401.22;5093484;28;20195;-89
2022/05/05 00:18:22;;;;;;;9.23;5.50;;;;;;;11.23;74.99;97411.88;5111867;28;20218;-89
2022/05/05 00:20:49;;;;;;;6.80;5.70;;;;;;;11.15;75.29;97401.00;5111724;28;20786;-85
2022/05/05 00:23:16;;;;;;;6.63;5.47;;;;;;;11.27;74.99;97421.22;5111840;28;20234;-86
2022/05/05 00:25:43;;;;;;;7.43;5.33;;;;;;;11.12;74.35;97387.34;5111868;28;20194;-90
2022/05/05 00:28:10;;;;;;;8.30;5.50;;;;;;;11.10;74.46;97413.31;5112545;28;20723;-86
2022/05/05 00:30:38;;;;;;;6.50;5.50;;;;;;;11.02;74.80;97418.00;5112383;28;20184;-84
2022/05/05 00:33:05;;;;;;;8.00;5.97;;;;;;;10.84;75.29;97433.44;5092543;28;20652;-90
2022/05/05 00:35:33;;;;;;;8.87;6.40;;;;;;;10.22;77.26;97415.19;5111615;28;20183;-86
2022/05/05 00:38:00;;;;;;;9.40;6.50;;;;;;;9.84;78.76;97420.03;5112706;28;20213;-84
2022/05/05 00:40:27;;;;;;;9.10;6.73;;;;;;;9.76;80.04;97428.97;5118009;28;20846;-86
2022/05/05 00:42:54;;;;;;;7.70;6.47;;;;;;;9.71;80.71;97407.59;5111206;28;20233;-84
2022/05/05 00:45:21;;;;;;;9.13;6.57;;;;;;;9.91;79.63;97396.53;5092623;28;20664;-86
2022/05/05 00:47:51;;;;;;;7.10;5.50;;;;;;;10.31;78.74;97409.66;5110803;28;20191;-88
2022/05/05 00:50:20;;;;;;;6.73;5.77;;;;;;;10.57;77.68;97418.09;5111298;28;20628;-89
2022/05/05 00:52:48;;;;;;;7.90;6.67;;;;;;;10.48;76.74;97399.50;5111802;28;20215;-85
2022/05/05 00:55:17;;;;;;;7.60;6.10;;;;;;;10.61;76.49;97403.28;5111306;28;20252;-90
2022/05/05 00:57:45;;;;;;;8.60;6.33;;;;;;;10.68;75.62;97407.31;5111732;28;20695;-85
2022/05/05 01:00:12;;;;;;;7.77;5.03;;;;;;;10.69;75.85;97434.06;5114030;28;20212;-85
2022/05/05 01:02:41;;;;;;;6.93;5.33;;;;;;;10.48;75.63;97407.25;5112279;28;20671;-92
2022/05/05 01:05:09;;;;;;;8.67;5.97;;;;;;;10.44;75.36;97395.34;5112712;28;20612;-84
2022/05/05 01:07:38;;;;;;;6.30;5.50;;;;;;;10.50;75.71;97421.84;5112921;28;20680;-85
2022/05/05 01:10:05;;;;;;;8.40;6.60;;;;;;;10.57;75.16;97428.44;5111810;28;20287;-88
2022/05/05 01:12:33;;;;;;;7.43;5.43;;;;;;;10.30;75.96;97441.63;5093151;28;20290;-87
2022/05/05 01:15:01;;;;;;;7.73;6.00;;;;;;;9.95;77.03;97437.75;5110450;28;20227;-85
2022/05/05 01:17:30;;;;;;;7.93;6.27;;;;;;;9.61;77.71;97416.59;5076157;28;20252;-87
2022/05/05 01:19:57;;;;;;;7.17;5.57;;;;;;;9.63;78.53;97433.75;5111547;28;20188;-85
2022/05/05 01:22:26;;;;;;;7.20;6.33;;;;;;;9.44;78.57;97393.06;5111083;28;20188;-93
2022/05/05 01:30:26;;;;;;;8.30;6.83;;;;;;;9.60;78.55;97397.63;5127626;28;20197;-88
2022/05/05 01:32:53;;;;;;;9.23;7.13;;;;;;;9.99;77.54;97435.88;5137854;27;20223;-87
2022/05/05 01:35:23;;;;;;;6.93;6.10;;;;;;;9.93;76.82;97418.00;5137594;27;20180;-95
2022/05/05 01:37:51;;;;;;;5.90;5.23;;;;;;;9.74;76.78;97386.81;5138001;27;20199;-89
2022/05/05 01:40:18;;;;;;;7.00;5.77;;;;;;;9.77;77.19;97433.22;5120170;27;20192;-93
2022/05/05 01:42:45;;;;;;;7.50;5.90;;;;;;;9.48;78.81;97407.59;5135542;28;20239;-87
2022/05/05 01:45:12;;;;;;;8.83;6.63;;;;;;;9.64;78.97;97409.56;5134434;28;20177;-90
2022/05/05 01:47:39;;;;;;;7.33;6.53;;;;;;;9.96;77.71;97428.22;5134468;28;20227;-86
2022/05/05 01:50:07;;;;;;;8.03;6.30;;;;;;;9.96;77.46;97417.88;5107161;28;20191;-95
2022/05/05 01:52:38;;;;;;;8.63;6.90;;;;;;;10.03;76.90;97401.25;5115444;28;20239;-95
2022/05/05 01:55:07;;;;;;;10.33;7.97;;;;;;;10.06;76.59;97408.88;5114299;28;20229;-95
2022/05/05 01:57:35;;;;;;;8.30;7.40;;;;;;;9.92;78.11;97431.81;5112130;28;20179;-92
2022/05/05 02:00:04;;;;;;;8.13;6.03;;;;;;;9.82;78.89;97432.19;5114381;28;20274;-93
2022/05/05 02:02:47;;;;;;;9.17;6.97;;;;;;;9.63;78.76;97405.28;5100399;28;20187;-85
2022/05/05 02:05:16;;;;;;;10.13;6.90;;;;;;;9.61;80.66;97438.13;5110469;28;20283;-85
2022/05/05 02:07:45;;;;;;;8.20;7.03;;;;;;;9.43;81.97;97435.34;5091788;28;20692;-90
2022/05/05 02:10:15;;;;;;;8.60;7.20;;;;;;;9.37;81.92;97432.97;5110518;28;20198;-85
2022/05/05 02:12:45;;;;;;;11.03;7.87;;;;;;;9.25;83.16;97431.66;5092224;28;20192;-85
2022/05/05 02:15:13;;;;;;;8.97;8.07;;;;;;;9.24;83.55;97434.28;5090499;28;20206;-87
2022/05/05 02:17:42;;;;;;;10.50;9.07;;;;;;;8.88;85.33;97403.63;5091545;28;20224;-84
2022/05/05 02:20:11;;;;;;;12.93;10.53;;;;;;;9.06;86.19;97434.91;5109390;28;20279;-90
2022/05/05 02:22:40;;;;;;;11.93;9.93;;;;;;;9.02;86.56;97416.94;5109027;28;20192;-86
2022/05/05 02:25:09;;;;;;;12.90;10.47;;;;;;;9.08;86.98;97431.38;5089609;28;20220;-84
2022/05/05 02:27:51;;;;;;;11.70;10.17;;;;;;;8.95;87.06;97406.84;5088948;28;20220;-84
2022/05/05 02:30:21;;;;;;;13.80;10.70;;;;;;;9.26;86.08;97440.22;5071820;28;20205;-84
2022/05/05 02:32:49;;;;;;;14.70;10.70;;;;;;;9.14;85.89;97415.66;5072048;28;20698;-84
2022/05/05 02:35:18;;;;;;;12.80;11.47;;;;;;;9.28;85.99;97444.47;5090570;28;20283;-86
2022/05/05 02:40:32;;;;;;;12.27;10.97;;;;;;;9.06;86.25;97402.16;5090751;28;20180;-86
2022/05/05 02:43:01;;;;;;;14.73;11.07;;;;;;;9.46;85.34;97438.66;5072120;28;20270;-85
2022/05/05 02:45:28;;;;;;;16.43;10.97;;;;;;;9.36;83.67;97400.25;5091268;28;20188;-85
2022/05/05 02:47:55;;;;;;;10.73;9.63;;;;;;;9.65;82.52;97434.53;5091187;28;20200;-84
2022/05/05 02:50:23;;;;;;;15.10;9.80;;;;;;;9.57;82.82;97431.38;5090285;28;20283;-84
2022/05/05 02:52:50;;;;;;;12.40;10.93;;;;;;;9.67;82.36;97448.25;5054263;28;20279;-83
2022/05/05 02:55:17;;;;;;;12.20;9.67;;;;;;;9.77;82.10;97449.59;5088598;28;20244;-84
2022/05/05 02:57:45;;;;;;;12.13;10.10;;;;;;;9.97;81.16;97445.44;5088303;28;20275;-85
2022/05/05 03:00:14;;;;;;;11.00;9.63;;;;;;;9.94;79.71;97442.97;5088088;28;20224;-84
2022/05/05 03:02:42;;;;;;;11.60;9.07;;;;;;;9.95;79.36;97460.19;5085497;28;20200;-90
2022/05/05 03:05:13;;;;;;;12.23;9.10;;;;;;;9.90;78.76;97441.38;5089489;28;20211;-85
2022/05/05 03:07:41;;;;;;;13.70;9.93;;;;;;;10.04;78.93;97465.00;5073754;28;20192;-86
2022/05/05 03:10:11;;;;;;;10.33;9.03;;;;;;;9.85;78.58;97431.19;5059750;28;20639;-86
2022/05/05 03:12:38;;;;;;;8.63;7.70;;;;;;;10.08;77.94;97448.47;5074185;28;20279;-87
2022/05/05 03:15:07;;;;;;;12.10;8.60;;;;;;;10.20;77.56;97451.47;5093454;28;20305;-85
2022/05/05 03:17:35;;;;;;;9.13;8.17;;;;;;;10.19;77.57;97456.72;5080101;28;20230;-86
2022/05/05 03:20:05;;;;;;;11.07;9.80;;;;;;;9.96;77.29;97443.75;5117793;28;20282;-83
2022/05/05 03:22:32;;;;;;;14.33;10.80;;;;;;;9.93;77.68;97477.50;5130903;28;20215;-84
2022/05/05 03:24:59;;;;;;;12.10;10.63;;;;;;;9.69;78.91;97455.94;5118578;28;20219;-84
2022/05/05 03:27:26;;;;;;;15.10;9.30;;;;;;;9.87;78.95;97485.50;5120362;28;20249;-84
2022/05/05 03:29:54;;;;;;;13.37;8.80;;;;;;;9.65;78.65;97483.66;5097876;28;20217;-85
2022/05/05 03:32:22;;;;;;;9.43;8.00;;;;;;;9.49;78.71;97448.03;5084202;28;20200;-84
2022/05/05 03:34:49;;;;;;;12.10;8.87;;;;;;;9.69;78.10;97486.97;5084458;28;20228;-84
2022/05/05 03:37:19;;;;;;;13.37;8.60;;;;;;;9.84;77.79;97495.06;5103913;28;20215;-83
2022/05/05 03:39:47;;;;;;;13.43;9.27;;;;;;;9.85;75.88;97472.59;5117153;28;20191;-84
2022/05/05 03:42:16;;;;;;;12.87;8.37;;;;;;;9.91;75.93;97474.97;5089234;28;20228;-84
2022/05/05 03:44:43;;;;;;;10.07;7.90;;;;;;;9.75;75.13;97476.41;5103689;28;20226;-85
2022/05/05 03:47:10;;;;;;;10.00;7.73;;;;;;;9.45;75.58;97490.41;5116767;28;20185;-85
2022/05/05 03:49:38;;;;;;;8.23;7.23;;;;;;;9.18;77.36;97491.31;5097665;28;20178;-86
2022/05/05 03:52:07;;;;;;;10.10;7.30;;;;;;;9.29;78.08;97509.91;5116593;28;20165;-85
2022/05/05 03:54:35;;;;;;;9.17;6.97;;;;;;;9.36;77.81;97483.81;5114428;28;20231;-84
2022/05/05 03:57:03;;;;;;;10.67;7.20;;;;;;;9.35;78.01;97482.13;5115168;28;20192;-89
2022/05/05 03:59:30;;;;;;;10.30;7.73;;;;;;;9.34;78.60;97475.25;5113297;28;20219;-85
2022/05/05 04:01:57;;;;;;;9.67;8.23;;;;;;;9.14;79.64;97453.56;5114124;28;20576;-83
2022/05/05 04:04:27;;;;;;;9.63;7.70;;;;;;;9.28;80.83;97495.28;5116064;28;20252;-84
2022/05/05 04:06:54;;;;;;;9.83;7.90;;;;;;;9.45;80.47;97488.69;5095795;28;20193;-92
2022/05/05 04:09:24;;;;;;;11.93;7.40;;;;;;;9.79;80.10;97481.41;5116625;28;20203;-88
2022/05/05 04:11:51;;;;;;;11.40;8.80;;;;;;;10.33;78.55;97514.84;5115730;28;20227;-91
2022/05/05 04:14:18;;;;;;;10.40;8.07;;;;;;;10.71;76.28;97474.53;5115926;28;20250;-82
2022/05/05 04:16:45;;;;;;;13.00;7.70;;;;;;;11.40;74.42;97514.91;5097924;28;20211;-83
2022/05/05 04:19:14;;;;;;;18.63;8.60;;;;;;;11.80;72.19;97514.09;5108582;28;20311;-94
2022/05/05 04:21:42;;;;;;;8.63;7.43;;;;;;;11.86;71.63;97493.06;5090799;28;20182;-85
2022/05/05 04:24:09;;;;;;;16.90;11.73;;;;;;;12.28;71.02;97514.56;5112013;28;20189;-96
2022/05/05 04:26:37;;;;;;;11.27;7.23;;;;;;;12.58;69.94;97507.94;5110913;28;20186;-87
2022/05/05 04:29:06;;;;;;;10.33;6.80;;;;;;;12.78;69.43;97528.66;5109363;28;20192;-89
2022/05/05 04:31:34;;;;;;;7.83;6.30;;;;;;;12.37;70.29;97518.47;5117213;28;20182;-90
2022/05/05 04:34:03;;;;;;;10.87;7.87;;;;;;;12.53;70.60;97511.69;5119207;28;20299;-94
2022/05/05 04:36:35;;;;;;;14.43;7.67;;;;;;;12.62;71.42;97527.69;5100620;28;20182;-88
2022/05/05 04:39:05;;;;;;;7.53;6.47;;;;;;;12.36;71.57;97511.59;5114361;28;20186;-95
2022/05/05 04:41:33;;;;;;;9.17;6.30;;;;;;;12.26;72.29;97530.19;5109941;28;20197;-87
2022/05/05 04:44:01;;;;;;;8.63;6.87;;;;;;;11.92;72.75;97492.81;5110109;28;20238;-87
2022/05/05 04:46:28;;;;;;;10.43;6.57;;;;;;;11.92;72.99;97536.91;5112252;28;20228;-94
2022/05/05 04:48:56;;;;;;;7.13;6.43;;;;;;;11.95;73.37;97534.22;5092104;28;20207;-96
2022/05/05 04:51:23;;;;;;;7.50;6.73;;;;;;;11.70;74.50;97518.00;5095992;28;20186;-88
2022/05/05 04:53:50;;;;;;;9.97;6.80;;;;;;;11.97;74.49;97550.56;5119063;28;20206;-84
2022/05/05 04:56:18;;;;;;;9.00;6.77;;;;;;;12.23;73.21;97521.69;5118412;28;20174;-84
2022/05/05 04:58:47;;;;;;;7.37;6.40;;;;;;;12.58;72.10;97533.94;5083223;28;20195;-84
2022/05/05 05:01:14;;;;;;;7.33;6.27;;;;;;;12.46;72.82;97547.47;5101033;28;20233;-88
2022/05/05 05:03:42;;;;;;;9.10;6.90;;;;;;;12.05;74.25;97528.56;5113935;28;20203;-84
2022/05/05 05:06:10;;;;;;;11.60;6.50;;;;;;;12.08;74.14;97517.16;5099497;28;20202;-88
2022/05/05 05:08:38;;;;;;;8.40;6.57;;;;;;;12.20;75.04;97543.44;5099799;28;20208;-85
2022/05/05 05:11:07;;;;;;;7.90;6.87;;;;;;;12.52;73.36;97536.81;5101111;28;20197;-87
2022/05/05 05:13:38;;;;;;;10.27;7.20;;;;;;;12.59;73.42;97533.00;5097242;28;20197;-89
2022/05/05 05:16:06;;;;;;;8.20;7.37;;;;;;;12.21;74.36;97507.94;5112202;28;20177;-93
2022/05/05 05:18:54;;;;;;;14.70;8.00;;;;;;;12.68;73.22;97508.34;5095497;28;20231;-94
2022/05/05 05:21:22;;;;;;;9.97;7.47;;;;;;;13.13;72.27;97529.63;5095908;28;20197;-90
2022/05/05 05:23:57;;;;;;;8.33;7.17;;;;;;;13.34;71.28;97538.13;5109005;28;20280;-90
2022/05/05 05:26:24;;;;;;;11.77;8.33;;;;;;;13.04;72.69;97520.50;5072385;28;20226;-91
2022/05/05 05:28:52;;;;;;;12.97;9.30;;;;;;;13.04;72.80;97507.50;5107891;28;20222;-84
2022/05/05 05:31:21;;;;;;;8.20;7.30;;;;;;;13.63;71.39;97511.53;5094509;28;20185;-85
2022/05/05 05:33:50;;;;;;;12.37;8.43;;;;;;;13.98;70.18;97520.13;5081426;28;20203;-95
2022/05/05 05:36:19;;;;;;;9.90;7.90;;;;;;;14.24;69.59;97538.69;5081960;28;20176;-89
2022/05/05 05:38:47;;;;;;;10.13;7.07;;;;;;;14.00;69.92;97524.34;5093882;28;20212;-91
2022/05/05 05:41:14;;;;;;;10.47;8.23;;;;;;;14.06;70.43;97547.47;5111972;28;20192;-84
2022/05/05 05:43:42;;;;;;;10.17;7.17;;;;;;;14.21;69.56;97532.81;5111502;28;20240;-91
2022/05/05 05:46:09;;;;;;;8.97;6.30;;;;;;;14.68;68.03;97549.41;5096872;28;20199;-91
2022/05/05 05:48:38;;;;;;;7.93;6.30;;;;;;;14.83;66.61;97548.59;5116342;28;20246;-85
2022/05/05 05:51:08;;;;;;;8.27;6.20;;;;;;;14.84;66.36;97528.59;5117205;28;20200;-87
2022/05/05 05:53:38;;;;;;;7.97;6.77;;;;;;;14.93;67.18;97547.16;5116779;28;20255;-96
2022/05/05 05:56:07;;;;;;;9.57;7.07;;;;;;;14.99;67.06;97543.38;5081018;28;20188;-92
2022/05/05 05:58:39;;;;;;;10.00;7.13;;;;;;;14.82;67.44;97533.03;5114931;28;20215;-90
2022/05/05 06:01:08;;;;;;;9.50;7.17;;;;;;;14.75;67.25;97529.06;5117393;28;20248;-96
2022/05/05 06:03:56;;;;;;;9.37;7.50;;;;;;;14.96;67.05;97533.13;5112859;28;20181;-84
2022/05/05 06:06:24;;;;;;;10.03;8.07;;;;;;;15.18;65.63;97538.81;5096228;28;20447;-84
2022/05/05 06:08:52;;;;;;;8.87;7.60;;;;;;;15.30;65.51;97519.84;5117546;28;20181;-85
2022/05/05 06:11:23;;;;;;;10.50;8.40;;;;;;;14.85;67.43;97525.03;5116835;28;20176;-89
2022/05/05 06:13:53;;;;;;;13.60;7.97;;;;;;;15.09;67.18;97545.38;5100113;28;20208;-84
2022/05/05 06:16:23;;;;;;;9.63;8.07;;;;;;;15.13;66.77;97536.47;5116420;28;20188;-85
2022/05/05 06:18:51;;;;;;;9.40;8.50;;;;;;;14.78;67.96;97515.84;5116437;28;20233;-87
2022/05/05 06:21:18;;;;;;;11.40;9.03;;;;;;;15.15;67.84;97541.59;5116533;28;20208;-85
2022/05/05 06:23:50;;;;;;;12.97;9.50;;;;;;;15.39;66.39;97524.56;5083459;28;20239;-84
2022/05/05 06:26:17;;;;;;;13.27;8.70;;;;;;;15.61;65.52;97530.25;5117002;28;20207;-84
2022/05/05 06:28:48;;;;;;;10.53;8.87;;;;;;;15.75;64.93;97535.50;5098319;28;20214;-84
2022/05/05 06:31:16;;;;;;;11.17;9.13;;;;;;;15.86;64.70;97545.34;5111935;28;20192;-93
2022/05/05 06:33:44;;;;;;;10.40;8.37;;;;;;;15.57;65.09;97541.81;5098043;28;20195;-84
2022/05/05 06:36:14;;;;;;;15.50;11.63;;;;;;;15.49;65.66;97512.69;5101679;28;20189;-83
2022/05/05 06:38:44;;;;;;;16.87;11.17;;;;;;;15.74;65.25;97539.06;5073629;28;20193;-83
2022/05/05 06:41:13;;;;;;;15.50;9.33;;;;;;;15.89;63.90;97521.66;5055106;28;20262;-83
2022/05/05 06:43:43;;;;;;;12.37;9.57;;;;;;;15.99;64.14;97541.91;5075079;28;20202;-84
2022/05/05 06:46:10;;;;;;;11.70;9.03;;;;;;;16.15;63.49;97505.25;5115016;28;20195;-84
2022/05/05 06:48:37;;;;;;;14.13;9.97;;;;;;;16.56;61.01;97531.50;5091523;28;20187;-84
2022/05/05 06:51:05;;;;;;;11.30;8.77;;;;;;;16.99;60.08;97533.13;5090235;28;20185;-84
2022/05/05 06:53:38;;;;;;;10.70;8.87;;;;;;;17.36;59.14;97537.69;5055649;28;20200;-85
2022/05/05 06:56:06;;;;;;;10.10;9.10;;;;;;;17.23;60.00;97544.66;5092249;28;20575;-83
2022/05/05 06:58:40;;;;;;;16.07;10.47;;;;;;;17.10;60.84;97515.78;5074681;28;20671;-83
2022/05/05 07:06:41;;;;;;;17.57;9.57;;;;;;;18.28;57.76;97541.97;5082769;28;20199;-85
2022/05/05 07:11:56;;;;;;;16.23;8.87;;;;;;;18.58;55.22;97529.41;5093013;28;20258;-84
2022/05/05 07:14:23;;;;;;;13.63;9.90;;;;;;;18.86;54.87;97546.66;5103745;28;20219;-84
2022/05/05 07:17:03;;;;;;;9.77;8.27;;;;;;;19.04;54.44;97550.59;5101285;28;20253;-85
2022/05/05 07:19:30;;;;;;;12.77;9.20;;;;;;;19.02;53.59;97530.66;5110374;28;20236;-84
2022/05/05 07:21:57;;;;;;;17.80;9.70;;;;;;;19.21;52.96;97529.22;5114730;28;20180;-84
2022/05/05 07:24:24;;;;;;;16.33;9.83;;;;;;;19.41;53.09;97557.53;5111107;28;20198;-84
2022/05/05 07:26:54;;;;;;;12.70;9.97;;;;;;;19.18;53.85;97524.22;5110460;28;20192;-84
2022/05/05 07:29:22;;;;;;;16.90;11.73;;;;;;;19.44;52.67;97520.53;5111145;28;20199;-84
2022/05/05 07:32:06;;;;;;;20.07;9.30;;;;;;;19.43;52.22;97516.22;5112419;28;20188;-86
2022/05/05 07:34:43;;;;;;;13.70;9.03;;;;;;;19.75;52.13;97552.44;5095768;28;20223;-84
2022/05/05 07:37:11;;;;;;;14.27;8.57;;;;;;;19.66;52.15;97548.69;5090985;28;20209;-85
2022/05/05 07:39:40;;;;;;;16.53;8.40;;;;;;;19.53;52.40;97532.16;5079313;28;20260;-84
2022/05/05 07:42:14;;;;;;;14.03;8.80;;;;;;;19.95;51.78;97554.41;5114492;28;20195;-84
2022/05/05 07:44:44;;;;;;;15.77;9.57;;;;;;;19.89;51.14;97545.19;5079855;28;20204;-83
2022/05/05 07:47:11;;;;;;;15.17;8.63;;;;;;;19.66;51.58;97518.97;5091922;28;20755;-89
2022/05/05 07:49:43;;;;;;;14.57;9.23;;;;;;;19.97;51.66;97555.16;5111662;28;20256;-84
2022/05/05 07:52:14;;;;;;;10.57;7.57;;;;;;;19.81;51.72;97559.84;5112301;28;20201;-87
2022/05/05 07:54:47;;;;;;;12.77;7.87;;;;;;;19.17;52.66;97533.03;5110650;28;20217;-86
2022/05/05 07:57:17;;;;;;;12.27;8.13;;;;;;;19.01;54.03;97561.31;5090137;28;20263;-86
2022/05/05 08:00:03;;;;;;;12.00;8.87;;;;;;;19.45;52.62;97561.63;5108000;28;20262;-84
2022/05/05 08:02:38;;;;;;;11.70;7.30;;;;;;;19.14;52.70;97561.28;5090621;28;20215;-84
2022/05/05 08:05:14;;;;;;;12.97;8.97;;;;;;;18.86;53.59;97482.81;5085234;28;20193;-84
2022/05/05 08:08:08;;;;;;;9.73;8.73;;;;;;;19.21;53.59;97531.00;5074328;28;20214;-84
2022/05/05 08:10:40;;;;;;;12.20;8.87;;;;;;;19.07;52.86;97491.78;5094374;28;20227;-83
2022/05/05 08:13:10;;;;;;;10.73;8.93;;;;;;;19.16;54.44;97568.13;5109652;28;20206;-84
2022/05/05 08:15:37;;;;;;;8.10;7.10;;;;;;;18.50;55.70;97573.69;5111229;28;20223;-87
2022/05/05 08:18:07;;;;;;;15.73;13.23;;;;;;;18.51;56.96;97550.91;5111792;28;20232;-84
2022/05/05 08:20:41;;;;;;;11.97;7.87;;;;;;;18.67;56.19;97547.09;5114133;28;20191;-87
2022/05/05 08:23:12;;;;;;;10.53;6.80;;;;;;;18.83;55.63;97561.78;5095397;28;20180;-85
2022/05/05 08:28:28;;;;;;;10.60;7.17;;;;;;;19.71;53.33;97549.19;5113860;28;20191;-86
2022/05/05 08:30:57;;;;;;;8.63;6.40;;;;;;;19.89;52.33;97558.34;5062186;28;20224;-84
2022/05/05 08:36:38;;;;;;;10.27;5.80;;;;;;;20.20;49.00;97530.59;5088601;28;20306;-85
2022/05/05 08:39:13;;;;;;;10.40;5.77;;;;;;;20.24;49.48;97558.34;5051708;28;20305;-84
2022/05/05 08:41:44;;;;;;;7.27;5.07;;;;;;;19.65;49.90;97533.88;5078438;28;20211;-83
2022/05/05 08:44:14;;;;;;;6.77;4.70;;;;;;;19.78;49.58;97544.34;5116478;28;20210;-86
2022/05/05 08:46:48;;;;;;;10.27;5.10;;;;;;;19.37;49.69;97532.44;5116525;28;20218;-84
2022/05/05 08:49:23;;;;;;;9.07;6.50;;;;;;;19.65;48.99;97554.06;5097262;28;20195;-84
2022/05/05 08:51:55;;;;;;;5.13;4.53;;;;;;;19.32;49.70;97528.44;5114383;28;20184;-84
2022/05/05 08:54:25;;;;;;;5.33;3.97;;;;;;;19.32;48.93;97568.69;5080917;28;20203;-84
2022/05/05 08:56:52;;;;;;;4.97;4.03;;;;;;;19.21;49.53;97573.88;5082806;28;20245;-85
2022/05/05 08:59:22;;;;;;;7.43;3.83;;;;;;;19.09;50.22;97566.88;5097102;28;20200;-84
2022/05/05 09:01:51;;;;;;;5.40;3.77;;;;;;;18.75;50.77;97535.25;5097132;28;20180;-87
2022/05/05 09:04:25;;;;;;;3.97;3.63;;;;;;;18.71;52.46;97571.38;5094675;28;20199;-84
2022/05/05 09:07:15;;;;;;;12.37;8.33;;;;;;;18.73;51.17;97556.34;5112319;28;20176;-84
2022/05/05 09:09:50;;;;;;;6.83;4.53;;;;;;;19.19;51.35;97578.38;5103269;28;20222;-83
2022/05/05 09:12:23;;;;;;;4.27;3.87;;;;;;;18.58;53.30;97524.16;5093075;28;20206;-84
2022/05/05 09:14:53;;;;;;;4.97;3.70;;;;;;;18.99;52.28;97578.13;5113675;28;20230;-82
2022/05/05 09:17:25;;;;;;;4.07;3.27;;;;;;;18.71;51.51;97566.13;5093842;28;20225;-83
2022/05/05 09:19:55;;;;;;;5.07;3.50;;;;;;;18.84;50.49;97579.19;5113537;28;20214;-85
2022/05/05 09:22:27;;;;;;;7.07;3.60;;;;;;;18.69;51.98;97575.88;5112805;28;20191;-83
2022/05/05 09:24:57;;;;;;;7.17;3.70;;;;;;;18.61;52.50;97583.41;5113253;28;20187;-83
2022/05/05 09:27:29;;;;;;;6.33;3.73;;;;;;;18.90;51.51;97563.88;5094322;28;20196;-85
2022/05/05 09:30:13;;;;;;;5.33;3.93;;;;;;;19.04;51.24;97568.16;5112222;28;20190;-84
2022/05/05 09:32:45;;;;;;;5.90;3.83;;;;;;;19.05;49.81;97552.28;5074353;28;20198;-84
2022/05/05 09:35:21;;;;;;;4.03;3.63;;;;;;;19.53;48.87;97578.63;5092965;28;20230;-83
2022/05/05 09:37:54;;;;;;;4.00;3.60;;;;;;;19.84;48.05;97578.88;5091942;28;20203;-82
2022/05/05 09:40:24;;;;;;;3.33;3.03;;;;;;;19.27;47.64;97548.94;5111077;28;20215;-84
2022/05/05 09:42:55;;;;;;;5.47;3.50;;;;;;;19.35;48.43;97578.19;5066036;28;20214;-83
2022/05/05 09:45:29;;;;;;;13.13;4.20;;;;;;;19.47;47.72;97574.66;5068579;28;20211;-84
2022/05/05 09:48:07;;;;;;;7.67;5.43;;;;;;;19.77;48.38;97569.78;5074966;28;20208;-84
2022/05/05 09:50:37;;;;;;;3.77;2.87;;;;;;;19.67;48.28;97549.53;5098804;28;20251;-83
2022/05/05 09:58:42;;;;;;;5.77;4.67;;;;;;;19.29;48.28;97540.00;5113099;28;20589;-84
2022/05/05 10:01:21;;;;;;;5.97;3.93;;;;;;;19.66;47.54;97584.66;5112187;28;20196;-85
2022/05/05 10:04:00;;;;;;;7.77;6.50;;;;;;;19.46;48.98;97579.06;5109061;28;20259;-85
2022/05/05 10:06:41;;;;;;;4.13;3.67;;;;;;;19.25;49.34;97577.09;5111231;28;20241;-84
2022/05/05 10:09:16;;;;;;;4.47;3.70;;;;;;;19.17;49.52;97546.16;5114841;28;20188;-84
2022/05/05 10:11:44;;;;;;;4.37;2.90;;;;;;;19.22;49.27;97570.31;5076667;28;20211;-83
2022/05/05 10:14:20;;;;;;;4.57;3.50;;;;;;;19.30;49.77;97554.84;5091458;28;20196;-83
2022/05/05 10:16:49;;;;;;;7.00;3.83;;;;;;;19.40;50.06;97555.03;5110254;28;20231;-83
2022/05/05 10:19:18;;;;;;;6.47;3.93;;;;;;;19.47;48.29;97561.53;5092155;28;20195;-83
2022/05/05 10:22:15;;;;;;;4.67;3.37;;;;;;;19.30;48.63;97562.72;5092887;28;20185;-83
2022/05/05 10:25:01;;;;;;;4.60;3.57;;;;;;;19.16;49.05;97554.16;5110264;28;20263;-84
2022/05/05 10:27:30;;;;;;;4.30;3.50;;;;;;;19.09;48.43;97556.38;5093168;28;20191;-84
2022/05/05 10:30:00;;;;;;;5.53;3.53;;;;;;;19.23;49.20;97581.63;5110583;28;20192;-84
2022/05/05 10:32:34;;;;;;;6.90;4.03;;;;;;;19.10;50.56;97583.47;5112139;28;20199;-83
2022/05/05 10:35:22;;;;;;;4.27;3.23;;;;;;;18.90;52.00;97589.28;5092316;28;20203;-84
2022/05/05 10:37:50;;;;;;;5.93;3.67;;;;;;;18.68;52.69;97584.69;5110703;28;20223;-85
2022/05/05 10:40:18;;;;;;;5.40;4.00;;;;;;;18.56;52.67;97554.91;5094431;28;20203;-84
2022/05/05 10:42:53;;;;;;;9.30;6.27;;;;;;;18.84;52.82;97579.19;5112145;28;20262;-84
2022/05/05 10:45:30;;;;;;;5.63;4.60;;;;;;;18.74;51.72;97605.25;5111703;28;20205;-84
2022/05/05 10:48:01;;;;;;;7.60;4.70;;;;;;;18.45;53.16;97603.78;5111314;28;20213;-85
2022/05/05 10:50:30;;;;;;;6.77;4.63;;;;;;;18.53;52.73;97597.06;5111112;28;20188;-84
2022/05/05 10:52:59;;;;;;;8.60;5.80;;;;;;;18.66;54.95;97608.41;5109511;28;20192;-84
2022/05/05 10:55:42;;;;;;;10.10;5.83;;;;;;;18.63;56.38;97610.38;5089871;28;20287;-84
2022/05/05 10:59:03;;;;;;;5.30;4.80;;;;;;;18.61;57.05;97614.91;5110687;28;20183;-88
2022/05/05 11:01:45;;;;;;;10.33;4.83;;;;;;;18.80;58.93;97624.97;5100182;28;20210;-84
2022/05/05 11:04:28;;;;;;;5.37;4.87;;;;;;;19.16;60.51;97625.88;5098402;28;20259;-84
2022/05/05 11:07:30;;;;;;;7.43;5.37;;;;;;;19.34;59.09;97619.34;5114493;28;20203;-84
2022/05/05 11:09:59;;;;;;;13.10;6.37;;;;;;;19.20;60.37;97568.72;5114576;28;20198;-84
2022/05/05 11:12:33;;;;;;;12.47;5.73;;;;;;;19.38;59.71;97602.44;5079216;28;20256;-83
2022/05/05 11:23:49;;;;;;;10.83;4.57;;;;;;;18.94;58.46;97622.25;5079972;28;20200;-84
2022/05/05 11:26:21;;;;;;;8.03;5.23;;;;;;;19.00;62.71;97633.13;5097125;28;20333;-84
2022/05/05 11:28:51;;;;;;;6.40;4.70;;;;;;;18.75;60.94;97591.19;5107106;28;20188;-84
2022/05/05 11:31:29;;;;;;;5.10;4.60;;;;;;;18.77;61.34;97615.56;5107005;28;20215;-85
2022/05/05 11:34:04;;;;;;;8.83;5.33;;;;;;;18.72;62.68;97622.88;5088729;28;20188;-84
2022/05/05 11:36:46;;;;;;;5.93;5.27;;;;;;;18.10;64.80;97600.03;5086040;28;20230;-84
2022/05/05 11:39:21;;;;;;;7.27;5.63;;;;;;;17.80;67.14;97616.84;5105558;28;20198;-83
2022/05/05 11:42:02;;;;;;;7.40;6.17;;;;;;;18.15;67.82;97637.28;5093957;28;20203;-83
2022/05/05 11:44:35;;;;;;;5.73;5.10;;;;;;;18.54;65.66;97638.13;5108477;28;20561;-84
2022/05/05 11:47:14;;;;;;;6.93;6.03;;;;;;;18.46;65.28;97632.56;5072111;28;20187;-83
2022/05/05 11:49:46;;;;;;;6.90;5.70;;;;;;;18.43;65.33;97632.75;5107542;28;20198;-84
2022/05/05 11:52:24;;;;;;;5.73;4.97;;;;;;;18.78;62.09;97632.13;5106875;28;20202;-84
2022/05/05 11:54:56;;;;;;;4.53;4.10;;;;;;;18.82;61.20;97629.19;5106748;28;20271;-83
2022/05/05 11:57:51;;;;;;;11.33;6.37;;;;;;;18.98;62.91;97628.97;5105733;28;20238;-83
2022/05/05 12:03:44;;;;;;;15.83;5.93;;;;;;;19.62;60.85;97605.06;5071739;28;20216;-83
2022/05/05 12:06:15;;;;;;;11.57;5.40;;;;;;;19.97;58.50;97631.41;5104262;28;20191;-84
2022/05/05 12:08:42;;;;;;;11.60;5.03;;;;;;;19.83;57.40;97618.41;5104025;28;20222;-84
2022/05/05 12:11:11;;;;;;;7.20;4.30;;;;;;;19.73;55.47;97602.50;5102635;28;20198;-83
2022/05/05 12:13:38;;;;;;;7.63;4.50;;;;;;;19.39;55.80;97603.28;5104546;28;20195;-83
2022/05/05 12:16:10;;;;;;;5.20;3.90;;;;;;;19.35;57.18;97614.94;5085961;28;20226;-84
2022/05/05 12:18:53;;;;;;;14.77;5.00;;;;;;;19.48;57.83;97637.59;5103335;28;20220;-82
2022/05/05 12:21:54;;;;;;;9.50;4.57;;;;;;;19.05;56.83;97612.66;5106383;28;20196;-84
2022/05/05 12:24:31;;;;;;;5.43;4.07;;;;;;;18.79;57.38;97618.06;5073554;28;20215;-86
2022/05/05 12:27:08;;;;;;;10.97;4.60;;;;;;;19.06;56.83;97637.16;5089850;28;20230;-83
2022/05/05 12:29:42;;;;;;;14.47;4.70;;;;;;;19.17;55.54;97640.69;5088873;28;20195;-85
2022/05/05 12:32:19;;;;;;;12.40;4.77;;;;;;;19.27;54.89;97631.19;5086171;28;20204;-87
2022/05/05 12:35:40;;;;;;;5.80;4.90;;;;;;;19.30;57.04;97631.00;5078736;28;20214;-84